sensor_id;sensor_type;location;lat;lon;timestamp;P1;durP1;ratioP1;P2;durP2;ratioP2
50367;SDS011;36281;34.132;-118.018;2023-07-29T00:00:08;14.40;;;9.90;;
50367;SDS011;36281;34.132;-118.018;2023-07-29T00:02:40;14.32;;;9.98;;
50367;SDS011;36281;34.132;-118.018;2023-07-29T00:05:09;13.55;;;10.35;;
50367;SDS011;36281;34.132;-118.018;2023-07-29T00:07:38;13.35;;;10.38;;
50367;SDS011;36281;34.132;-118.018;2023-07-29T00:10:09;11.43;;;9.82;;
50367;SDS011;36281;34.132;-118.018;2023-07-29T00:12:38;14.45;;;10.13;;
50367;SDS011;36281;34.132;-118.018;2023-07-29T00:15:07;13.68;;;9.52;;
50367;SDS011;36281;34.132;-118.018;2023-07-29T00:17:37;15.65;;;10.75;;
50367;SDS011;36281;34.132;-118.018;2023-07-29T00:20:07;10.85;;;9.27;;
50367;SDS011;36281;34.132;-118.018;2023-07-29T00:22:36;11.73;;;9.35;;
50367;SDS011;36281;34.132;-118.018;2023-07-29T00:25:05;12.00;;;9.75;;
50367;SDS011;36281;34.132;-118.018;2023-07-29T00:27:36;13.73;;;9.52;;
50367;SDS011;36281;34.132;-118.018;2023-07-29T00:30:06;14.60;;;10.35;;
50367;SDS011;36281;34.132;-118.018;2023-07-29T00:32:36;14.73;;;10.05;;
50367;SDS011;36281;34.132;-118.018;2023-07-29T00:35:05;14.18;;;9.82;;
50367;SDS011;36281;34.132;-118.018;2023-07-29T00:37:35;15.32;;;9.57;;
50367;SDS011;36281;34.132;-118.018;2023-07-29T00:40:07;12.25;;;9.15;;
50367;SDS011;36281;34.132;-118.018;2023-07-29T00:42:45;13.60;;;9.10;;
50367;SDS011;36281;34.132;-118.018;2023-07-29T00:45:14;11.23;;;9.48;;
50367;SDS011;36281;34.132;-118.018;2023-07-29T00:47:43;11.35;;;8.95;;
50367;SDS011;36281;34.132;-118.018;2023-07-29T00:50:13;14.23;;;9.55;;
50367;SDS011;36281;34.132;-118.018;2023-07-29T00:52:43;11.30;;;9.90;;
50367;SDS011;36281;34.132;-118.018;2023-07-29T00:55:12;15.02;;;9.93;;
50367;SDS011;36281;34.132;-118.018;2023-07-29T00:57:41;11.27;;;9.15;;
50367;SDS011;36281;34.132;-118.018;2023-07-29T01:00:17;16.65;;;9.65;;
50367;SDS011;36281;34.132;-118.018;2023-07-29T01:02:46;12.02;;;9.18;;
50367;SDS011;36281;34.132;-118.018;2023-07-29T01:05:16;14.48;;;9.10;;
50367;SDS011;36281;34.132;-118.018;2023-07-29T01:07:47;16.10;;;10.23;;
50367;SDS011;36281;34.132;-118.018;2023-07-29T01:10:26;10.55;;;8.57;;
50367;SDS011;36281;34.132;-118.018;2023-07-29T01:13:04;16.77;;;9.73;;
50367;SDS011;36281;34.132;-118.018;2023-07-29T01:15:43;14.52;;;9.30;;
50367;SDS011;36281;34.132;-118.018;2023-07-29T01:18:18;11.68;;;8.80;;
50367;SDS011;36281;34.132;-118.018;2023-07-29T01:20:51;13.90;;;9.73;;
50367;SDS011;36281;34.132;-118.018;2023-07-29T01:23:26;11.25;;;8.90;;
50367;SDS011;36281;34.132;-118.018;2023-07-29T01:25:58;13.05;;;8.95;;
50367;SDS011;36281;34.132;-118.018;2023-07-29T01:28:27;12.43;;;9.02;;
50367;SDS011;36281;34.132;-118.018;2023-07-29T01:31:01;12.00;;;8.50;;
50367;SDS011;36281;34.132;-118.018;2023-07-29T01:33:35;13.50;;;9.18;;
50367;SDS011;36281;34.132;-118.018;2023-07-29T01:36:11;13.50;;;8.90;;
50367;SDS011;36281;34.132;-118.018;2023-07-29T01:38:48;13.98;;;8.52;;
50367;SDS011;36281;34.132;-118.018;2023-07-29T01:41:19;15.15;;;8.85;;
50367;SDS011;36281;34.132;-118.018;2023-07-29T01:43:49;12.32;;;9.20;;
50367;SDS011;36281;34.132;-118.018;2023-07-29T01:46:20;17.80;;;9.13;;
50367;SDS011;36281;34.132;-118.018;2023-07-29T01:48:49;16.50;;;9.23;;
50367;SDS011;36281;34.132;-118.018;2023-07-29T01:51:19;12.52;;;8.50;;
50367;SDS011;36281;34.132;-118.018;2023-07-29T01:53:50;12.23;;;7.95;;
50367;SDS011;36281;34.132;-118.018;2023-07-29T01:56:19;11.23;;;8.27;;
50367;SDS011;36281;34.132;-118.018;2023-07-29T01:58:49;12.98;;;9.13;;
50367;SDS011;36281;34.132;-118.018;2023-07-29T02:01:18;15.10;;;9.38;;
50367;SDS011;36281;34.132;-118.018;2023-07-29T02:03:47;13.10;;;8.52;;
50367;SDS011;36281;34.132;-118.018;2023-07-29T02:08:52;11.40;;;8.20;;
50367;SDS011;36281;34.132;-118.018;2023-07-29T02:11:21;11.70;;;8.50;;
50367;SDS011;36281;34.132;-118.018;2023-07-29T02:13:55;15.50;;;8.95;;
50367;SDS011;36281;34.132;-118.018;2023-07-29T02:16:24;13.38;;;8.60;;
50367;SDS011;36281;34.132;-118.018;2023-07-29T02:18:53;12.10;;;8.38;;
50367;SDS011;36281;34.132;-118.018;2023-07-29T02:21:22;14.77;;;8.68;;
50367;SDS011;36281;34.132;-118.018;2023-07-29T02:23:53;12.02;;;8.38;;
50367;SDS011;36281;34.132;-118.018;2023-07-29T02:26:22;13.65;;;8.52;;
50367;SDS011;36281;34.132;-118.018;2023-07-29T02:28:51;11.57;;;8.20;;
50367;SDS011;36281;34.132;-118.018;2023-07-29T02:31:21;13.88;;;9.07;;
50367;SDS011;36281;34.132;-118.018;2023-07-29T02:33:50;14.73;;;8.40;;
50367;SDS011;36281;34.132;-118.018;2023-07-29T02:36:20;14.52;;;8.70;;
50367;SDS011;36281;34.132;-118.018;2023-07-29T02:38:49;12.25;;;8.35;;
50367;SDS011;36281;34.132;-118.018;2023-07-29T02:41:19;12.73;;;8.48;;
50367;SDS011;36281;34.132;-118.018;2023-07-29T02:43:49;14.13;;;8.63;;
50367;SDS011;36281;34.132;-118.018;2023-07-29T02:49:01;13.25;;;8.23;;
50367;SDS011;36281;34.132;-118.018;2023-07-29T02:49:56;14.90;;;8.40;;
50367;SDS011;36281;34.132;-118.018;2023-07-29T02:52:52;11.77;;;8.00;;
50367;SDS011;36281;34.132;-118.018;2023-07-29T02:56:15;16.25;;;8.93;;
50367;SDS011;36281;34.132;-118.018;2023-07-29T02:59:09;13.40;;;8.57;;
50367;SDS011;36281;34.132;-118.018;2023-07-29T03:05:30;21.17;;;9.48;;
50367;SDS011;36281;34.132;-118.018;2023-07-29T03:08:55;13.93;;;8.85;;
50367;SDS011;36281;34.132;-118.018;2023-07-29T03:12:15;15.95;;;9.10;;
50367;SDS011;36281;34.132;-118.018;2023-07-29T03:14:47;16.58;;;9.35;;
50367;SDS011;36281;34.132;-118.018;2023-07-29T03:17:16;13.00;;;8.63;;
50367;SDS011;36281;34.132;-118.018;2023-07-29T03:19:45;14.63;;;8.57;;
50367;SDS011;36281;34.132;-118.018;2023-07-29T03:22:14;19.10;;;10.07;;
50367;SDS011;36281;34.132;-118.018;2023-07-29T03:24:43;17.20;;;9.68;;
50367;SDS011;36281;34.132;-118.018;2023-07-29T03:27:12;14.30;;;9.10;;
50367;SDS011;36281;34.132;-118.018;2023-07-29T03:29:43;16.67;;;9.50;;
50367;SDS011;36281;34.132;-118.018;2023-07-29T03:32:12;19.17;;;9.82;;
50367;SDS011;36281;34.132;-118.018;2023-07-29T03:34:41;15.82;;;9.07;;
50367;SDS011;36281;34.132;-118.018;2023-07-29T03:37:10;14.52;;;9.18;;
50367;SDS011;36281;34.132;-118.018;2023-07-29T03:39:39;16.83;;;9.00;;
50367;SDS011;36281;34.132;-118.018;2023-07-29T03:42:08;17.08;;;9.68;;
50367;SDS011;36281;34.132;-118.018;2023-07-29T03:44:39;16.75;;;9.90;;
50367;SDS011;36281;34.132;-118.018;2023-07-29T03:47:08;17.65;;;9.35;;
50367;SDS011;36281;34.132;-118.018;2023-07-29T03:49:37;16.60;;;9.20;;
50367;SDS011;36281;34.132;-118.018;2023-07-29T03:52:06;16.15;;;8.95;;
50367;SDS011;36281;34.132;-118.018;2023-07-29T03:54:35;12.32;;;9.25;;
50367;SDS011;36281;34.132;-118.018;2023-07-29T03:57:05;15.85;;;9.68;;
50367;SDS011;36281;34.132;-118.018;2023-07-29T03:59:34;17.33;;;9.88;;
50367;SDS011;36281;34.132;-118.018;2023-07-29T04:02:05;15.77;;;9.60;;
50367;SDS011;36281;34.132;-118.018;2023-07-29T04:04:34;19.02;;;10.20;;
50367;SDS011;36281;34.132;-118.018;2023-07-29T04:07:15;14.65;;;9.25;;
50367;SDS011;36281;34.132;-118.018;2023-07-29T04:09:45;17.27;;;9.65;;
50367;SDS011;36281;34.132;-118.018;2023-07-29T04:12:14;16.35;;;9.77;;
50367;SDS011;36281;34.132;-118.018;2023-07-29T04:14:52;16.80;;;9.85;;
50367;SDS011;36281;34.132;-118.018;2023-07-29T04:17:25;16.10;;;9.60;;
50367;SDS011;36281;34.132;-118.018;2023-07-29T04:20:01;17.55;;;10.30;;
50367;SDS011;36281;34.132;-118.018;2023-07-29T04:22:39;19.88;;;10.40;;
50367;SDS011;36281;34.132;-118.018;2023-07-29T04:25:22;16.13;;;10.50;;
50367;SDS011;36281;34.132;-118.018;2023-07-29T04:27:56;19.85;;;10.45;;
50367;SDS011;36281;34.132;-118.018;2023-07-29T04:30:36;16.25;;;10.25;;
50367;SDS011;36281;34.132;-118.018;2023-07-29T04:40:25;19.77;;;10.23;;
50367;SDS011;36281;34.132;-118.018;2023-07-29T04:43:10;16.25;;;9.90;;
50367;SDS011;36281;34.132;-118.018;2023-07-29T04:49:22;17.70;;;10.20;;
50367;SDS011;36281;34.132;-118.018;2023-07-29T04:52:22;14.48;;;9.32;;
50367;SDS011;36281;34.132;-118.018;2023-07-29T04:55:33;17.27;;;11.00;;
50367;SDS011;36281;34.132;-118.018;2023-07-29T04:58:37;17.20;;;10.45;;
50367;SDS011;36281;34.132;-118.018;2023-07-29T05:01:32;20.42;;;10.43;;
50367;SDS011;36281;34.132;-118.018;2023-07-29T05:04:13;20.55;;;10.88;;
50367;SDS011;36281;34.132;-118.018;2023-07-29T05:06:53;20.70;;;10.73;;
50367;SDS011;36281;34.132;-118.018;2023-07-29T05:09:35;18.60;;;10.57;;
50367;SDS011;36281;34.132;-118.018;2023-07-29T05:12:31;19.25;;;11.07;;
50367;SDS011;36281;34.132;-118.018;2023-07-29T05:15:14;20.05;;;10.68;;
50367;SDS011;36281;34.132;-118.018;2023-07-29T05:18:14;17.80;;;10.98;;
50367;SDS011;36281;34.132;-118.018;2023-07-29T05:21:07;18.50;;;10.10;;
50367;SDS011;36281;34.132;-118.018;2023-07-29T05:23:52;20.35;;;11.40;;
50367;SDS011;36281;34.132;-118.018;2023-07-29T05:27:07;17.38;;;10.70;;
50367;SDS011;36281;34.132;-118.018;2023-07-29T05:29:14;15.93;;;10.60;;
50367;SDS011;36281;34.132;-118.018;2023-07-29T05:31:43;18.52;;;10.80;;
50367;SDS011;36281;34.132;-118.018;2023-07-29T05:34:12;19.33;;;11.40;;
50367;SDS011;36281;34.132;-118.018;2023-07-29T05:36:41;21.63;;;11.43;;
50367;SDS011;36281;34.132;-118.018;2023-07-29T05:39:12;14.73;;;10.32;;
50367;SDS011;36281;34.132;-118.018;2023-07-29T05:41:41;18.17;;;10.68;;
50367;SDS011;36281;34.132;-118.018;2023-07-29T05:44:10;13.98;;;10.30;;
50367;SDS011;36281;34.132;-118.018;2023-07-29T05:46:39;17.30;;;10.52;;
50367;SDS011;36281;34.132;-118.018;2023-07-29T05:49:08;17.15;;;10.38;;
50367;SDS011;36281;34.132;-118.018;2023-07-29T05:51:37;18.33;;;10.40;;
50367;SDS011;36281;34.132;-118.018;2023-07-29T05:54:06;16.88;;;10.73;;
50367;SDS011;36281;34.132;-118.018;2023-07-29T05:56:37;15.85;;;9.98;;
50367;SDS011;36281;34.132;-118.018;2023-07-29T05:59:06;15.40;;;10.45;;
50367;SDS011;36281;34.132;-118.018;2023-07-29T06:01:35;17.98;;;11.00;;
50367;SDS011;36281;34.132;-118.018;2023-07-29T06:04:04;20.48;;;10.82;;
50367;SDS011;36281;34.132;-118.018;2023-07-29T06:06:33;16.05;;;10.85;;
50367;SDS011;36281;34.132;-118.018;2023-07-29T06:09:03;18.55;;;11.07;;
50367;SDS011;36281;34.132;-118.018;2023-07-29T06:11:32;17.88;;;11.57;;
50367;SDS011;36281;34.132;-118.018;2023-07-29T06:14:02;16.00;;;10.60;;
50367;SDS011;36281;34.132;-118.018;2023-07-29T06:16:32;19.33;;;11.23;;
50367;SDS011;36281;34.132;-118.018;2023-07-29T06:19:01;17.42;;;11.48;;
50367;SDS011;36281;34.132;-118.018;2023-07-29T06:21:30;17.02;;;10.88;;
50367;SDS011;36281;34.132;-118.018;2023-07-29T06:23:59;17.02;;;11.35;;
50367;SDS011;36281;34.132;-118.018;2023-07-29T06:26:28;17.52;;;10.45;;
50367;SDS011;36281;34.132;-118.018;2023-07-29T06:28:57;21.63;;;12.13;;
50367;SDS011;36281;34.132;-118.018;2023-07-29T06:31:28;18.05;;;11.05;;
50367;SDS011;36281;34.132;-118.018;2023-07-29T06:33:57;19.52;;;10.77;;
50367;SDS011;36281;34.132;-118.018;2023-07-29T06:36:26;15.95;;;10.95;;
50367;SDS011;36281;34.132;-118.018;2023-07-29T06:38:55;16.83;;;10.55;;
50367;SDS011;36281;34.132;-118.018;2023-07-29T06:41:24;18.75;;;11.55;;
50367;SDS011;36281;34.132;-118.018;2023-07-29T06:43:53;22.65;;;11.43;;
50367;SDS011;36281;34.132;-118.018;2023-07-29T06:46:22;17.55;;;11.15;;
50367;SDS011;36281;34.132;-118.018;2023-07-29T06:48:53;20.23;;;11.07;;
50367;SDS011;36281;34.132;-118.018;2023-07-29T06:51:22;16.88;;;10.90;;
50367;SDS011;36281;34.132;-118.018;2023-07-29T06:53:51;23.52;;;11.63;;
50367;SDS011;36281;34.132;-118.018;2023-07-29T06:56:21;17.77;;;11.32;;
50367;SDS011;36281;34.132;-118.018;2023-07-29T06:58:50;20.85;;;11.25;;
50367;SDS011;36281;34.132;-118.018;2023-07-29T07:01:19;19.27;;;11.73;;
50367;SDS011;36281;34.132;-118.018;2023-07-29T07:03:48;16.17;;;10.07;;
50367;SDS011;36281;34.132;-118.018;2023-07-29T07:06:19;19.52;;;11.30;;
50367;SDS011;36281;34.132;-118.018;2023-07-29T07:08:49;19.55;;;11.43;;
50367;SDS011;36281;34.132;-118.018;2023-07-29T07:11:18;16.70;;;11.00;;
50367;SDS011;36281;34.132;-118.018;2023-07-29T07:13:47;20.45;;;11.25;;
50367;SDS011;36281;34.132;-118.018;2023-07-29T07:16:16;16.50;;;10.93;;
50367;SDS011;36281;34.132;-118.018;2023-07-29T07:18:45;20.55;;;11.95;;
50367;SDS011;36281;34.132;-118.018;2023-07-29T07:21:14;19.63;;;11.85;;
50367;SDS011;36281;34.132;-118.018;2023-07-29T07:23:45;18.35;;;11.90;;
50367;SDS011;36281;34.132;-118.018;2023-07-29T07:26:14;17.27;;;11.30;;
50367;SDS011;36281;34.132;-118.018;2023-07-29T07:28:43;17.33;;;11.13;;
50367;SDS011;36281;34.132;-118.018;2023-07-29T07:31:12;20.75;;;11.40;;
50367;SDS011;36281;34.132;-118.018;2023-07-29T07:33:44;19.58;;;10.52;;
50367;SDS011;36281;34.132;-118.018;2023-07-29T07:36:13;18.73;;;11.93;;
50367;SDS011;36281;34.132;-118.018;2023-07-29T07:38:45;15.98;;;11.13;;
50367;SDS011;36281;34.132;-118.018;2023-07-29T07:41:14;18.55;;;11.27;;
50367;SDS011;36281;34.132;-118.018;2023-07-29T07:43:43;23.80;;;12.20;;
50367;SDS011;36281;34.132;-118.018;2023-07-29T07:46:12;16.55;;;11.35;;
50367;SDS011;36281;34.132;-118.018;2023-07-29T07:48:41;15.35;;;11.57;;
50367;SDS011;36281;34.132;-118.018;2023-07-29T07:51:10;17.88;;;11.27;;
50367;SDS011;36281;34.132;-118.018;2023-07-29T07:53:40;18.15;;;10.93;;
50367;SDS011;36281;34.132;-118.018;2023-07-29T07:56:11;23.55;;;12.02;;
50367;SDS011;36281;34.132;-118.018;2023-07-29T07:58:40;19.15;;;11.93;;
50367;SDS011;36281;34.132;-118.018;2023-07-29T08:01:09;18.40;;;11.27;;
50367;SDS011;36281;34.132;-118.018;2023-07-29T08:03:39;21.00;;;12.15;;
50367;SDS011;36281;34.132;-118.018;2023-07-29T08:06:08;22.98;;;12.25;;
50367;SDS011;36281;34.132;-118.018;2023-07-29T08:08:37;25.35;;;12.65;;
50367;SDS011;36281;34.132;-118.018;2023-07-29T08:11:06;19.05;;;12.10;;
50367;SDS011;36281;34.132;-118.018;2023-07-29T08:13:37;21.80;;;12.43;;
50367;SDS011;36281;34.132;-118.018;2023-07-29T08:16:06;18.67;;;12.32;;
50367;SDS011;36281;34.132;-118.018;2023-07-29T08:18:35;16.65;;;11.85;;
50367;SDS011;36281;34.132;-118.018;2023-07-29T08:21:04;17.42;;;11.52;;
50367;SDS011;36281;34.132;-118.018;2023-07-29T08:23:34;22.85;;;12.30;;
50367;SDS011;36281;34.132;-118.018;2023-07-29T08:26:04;18.67;;;12.43;;
50367;SDS011;36281;34.132;-118.018;2023-07-29T08:28:35;20.27;;;12.07;;
50367;SDS011;36281;34.132;-118.018;2023-07-29T08:31:06;18.40;;;11.18;;
50367;SDS011;36281;34.132;-118.018;2023-07-29T08:33:35;18.17;;;11.10;;
50367;SDS011;36281;34.132;-118.018;2023-07-29T08:36:04;17.92;;;11.45;;
50367;SDS011;36281;34.132;-118.018;2023-07-29T08:38:34;20.42;;;11.48;;
50367;SDS011;36281;34.132;-118.018;2023-07-29T08:41:06;19.45;;;11.38;;
50367;SDS011;36281;34.132;-118.018;2023-07-29T08:43:43;19.80;;;11.45;;
50367;SDS011;36281;34.132;-118.018;2023-07-29T08:46:19;18.17;;;11.10;;
50367;SDS011;36281;34.132;-118.018;2023-07-29T08:48:48;18.42;;;11.20;;
50367;SDS011;36281;34.132;-118.018;2023-07-29T08:51:19;20.63;;;12.27;;
50367;SDS011;36281;34.132;-118.018;2023-07-29T08:53:49;20.02;;;11.00;;
50367;SDS011;36281;34.132;-118.018;2023-07-29T08:56:19;17.00;;;11.57;;
50367;SDS011;36281;34.132;-118.018;2023-07-29T08:58:49;19.83;;;11.10;;
50367;SDS011;36281;34.132;-118.018;2023-07-29T09:01:19;17.45;;;11.73;;
50367;SDS011;36281;34.132;-118.018;2023-07-29T09:03:48;20.13;;;11.95;;
50367;SDS011;36281;34.132;-118.018;2023-07-29T09:06:17;19.40;;;12.25;;
50367;SDS011;36281;34.132;-118.018;2023-07-29T09:08:48;21.55;;;12.05;;
50367;SDS011;36281;34.132;-118.018;2023-07-29T09:11:21;20.95;;;12.45;;
50367;SDS011;36281;34.132;-118.018;2023-07-29T09:13:53;18.17;;;11.80;;
50367;SDS011;36281;34.132;-118.018;2023-07-29T09:16:22;18.55;;;11.77;;
50367;SDS011;36281;34.132;-118.018;2023-07-29T09:18:52;19.67;;;11.75;;
50367;SDS011;36281;34.132;-118.018;2023-07-29T09:21:23;23.88;;;12.00;;
50367;SDS011;36281;34.132;-118.018;2023-07-29T09:23:56;19.80;;;12.23;;
50367;SDS011;36281;34.132;-118.018;2023-07-29T09:26:30;24.05;;;12.25;;
50367;SDS011;36281;34.132;-118.018;2023-07-29T09:29:00;23.60;;;12.55;;
50367;SDS011;36281;34.132;-118.018;2023-07-29T09:31:30;21.65;;;12.07;;
50367;SDS011;36281;34.132;-118.018;2023-07-29T09:33:59;22.75;;;11.82;;
50367;SDS011;36281;34.132;-118.018;2023-07-29T09:36:30;18.48;;;12.38;;
50367;SDS011;36281;34.132;-118.018;2023-07-29T09:39:01;18.73;;;11.70;;
50367;SDS011;36281;34.132;-118.018;2023-07-29T09:41:31;19.88;;;12.60;;
50367;SDS011;36281;34.132;-118.018;2023-07-29T09:44:02;23.13;;;12.32;;
50367;SDS011;36281;34.132;-118.018;2023-07-29T09:46:32;22.20;;;11.57;;
50367;SDS011;36281;34.132;-118.018;2023-07-29T09:49:03;22.73;;;12.45;;
50367;SDS011;36281;34.132;-118.018;2023-07-29T09:51:36;19.85;;;12.15;;
50367;SDS011;36281;34.132;-118.018;2023-07-29T09:56:41;22.88;;;12.30;;
50367;SDS011;36281;34.132;-118.018;2023-07-29T09:59:13;22.73;;;12.27;;
50367;SDS011;36281;34.132;-118.018;2023-07-29T10:01:47;19.35;;;11.55;;
50367;SDS011;36281;34.132;-118.018;2023-07-29T10:04:16;24.52;;;12.93;;
50367;SDS011;36281;34.132;-118.018;2023-07-29T10:06:46;20.77;;;12.40;;
50367;SDS011;36281;34.132;-118.018;2023-07-29T10:09:15;22.90;;;13.05;;
50367;SDS011;36281;34.132;-118.018;2023-07-29T10:11:47;22.50;;;12.57;;
50367;SDS011;36281;34.132;-118.018;2023-07-29T10:14:20;22.42;;;12.05;;
50367;SDS011;36281;34.132;-118.018;2023-07-29T10:16:49;23.92;;;13.15;;
50367;SDS011;36281;34.132;-118.018;2023-07-29T10:19:20;24.83;;;12.90;;
50367;SDS011;36281;34.132;-118.018;2023-07-29T10:21:50;20.90;;;12.52;;
50367;SDS011;36281;34.132;-118.018;2023-07-29T10:24:22;21.67;;;12.02;;
50367;SDS011;36281;34.132;-118.018;2023-07-29T10:26:57;19.20;;;11.23;;
50367;SDS011;36281;34.132;-118.018;2023-07-29T10:29:30;17.90;;;11.65;;
50367;SDS011;36281;34.132;-118.018;2023-07-29T10:32:03;18.98;;;11.88;;
50367;SDS011;36281;34.132;-118.018;2023-07-29T10:34:34;21.90;;;12.63;;
50367;SDS011;36281;34.132;-118.018;2023-07-29T10:37:04;20.02;;;11.93;;
50367;SDS011;36281;34.132;-118.018;2023-07-29T10:39:38;22.73;;;12.23;;
50367;SDS011;36281;34.132;-118.018;2023-07-29T10:42:09;20.88;;;12.65;;
50367;SDS011;36281;34.132;-118.018;2023-07-29T10:44:49;21.23;;;12.23;;
50367;SDS011;36281;34.132;-118.018;2023-07-29T10:47:23;23.92;;;12.00;;
50367;SDS011;36281;34.132;-118.018;2023-07-29T10:49:53;22.60;;;12.55;;
50367;SDS011;36281;34.132;-118.018;2023-07-29T10:52:30;20.05;;;11.90;;
50367;SDS011;36281;34.132;-118.018;2023-07-29T10:58:08;20.42;;;11.75;;
50367;SDS011;36281;34.132;-118.018;2023-07-29T11:00:43;17.65;;;11.55;;
50367;SDS011;36281;34.132;-118.018;2023-07-29T11:03:13;20.98;;;12.77;;
50367;SDS011;36281;34.132;-118.018;2023-07-29T11:05:47;17.88;;;11.80;;
50367;SDS011;36281;34.132;-118.018;2023-07-29T11:08:17;22.45;;;12.52;;
50367;SDS011;36281;34.132;-118.018;2023-07-29T11:11:01;20.45;;;12.00;;
50367;SDS011;36281;34.132;-118.018;2023-07-29T11:13:33;20.48;;;12.20;;
50367;SDS011;36281;34.132;-118.018;2023-07-29T11:16:05;22.00;;;12.77;;
50367;SDS011;36281;34.132;-118.018;2023-07-29T11:18:35;24.48;;;12.70;;
50367;SDS011;36281;34.132;-118.018;2023-07-29T11:21:04;24.25;;;13.00;;
50367;SDS011;36281;34.132;-118.018;2023-07-29T11:23:33;21.00;;;12.60;;
50367;SDS011;36281;34.132;-118.018;2023-07-29T11:26:04;22.13;;;12.18;;
50367;SDS011;36281;34.132;-118.018;2023-07-29T11:28:37;20.85;;;11.38;;
50367;SDS011;36281;34.132;-118.018;2023-07-29T11:31:09;21.73;;;11.98;;
50367;SDS011;36281;34.132;-118.018;2023-07-29T11:33:38;22.83;;;12.55;;
50367;SDS011;36281;34.132;-118.018;2023-07-29T11:36:17;24.25;;;12.93;;
50367;SDS011;36281;34.132;-118.018;2023-07-29T11:38:47;22.50;;;12.07;;
50367;SDS011;36281;34.132;-118.018;2023-07-29T11:41:19;20.88;;;12.23;;
50367;SDS011;36281;34.132;-118.018;2023-07-29T11:43:49;21.40;;;12.48;;
50367;SDS011;36281;34.132;-118.018;2023-07-29T11:46:22;18.92;;;12.00;;
50367;SDS011;36281;34.132;-118.018;2023-07-29T11:48:53;22.38;;;13.35;;
50367;SDS011;36281;34.132;-118.018;2023-07-29T11:51:23;21.13;;;12.57;;
50367;SDS011;36281;34.132;-118.018;2023-07-29T11:53:53;24.23;;;13.10;;
50367;SDS011;36281;34.132;-118.018;2023-07-29T11:56:23;18.58;;;11.05;;
50367;SDS011;36281;34.132;-118.018;2023-07-29T11:58:53;21.40;;;12.07;;
50367;SDS011;36281;34.132;-118.018;2023-07-29T12:01:24;24.13;;;12.23;;
50367;SDS011;36281;34.132;-118.018;2023-07-29T12:03:53;23.73;;;12.90;;
50367;SDS011;36281;34.132;-118.018;2023-07-29T12:06:24;21.45;;;12.57;;
50367;SDS011;36281;34.132;-118.018;2023-07-29T12:08:53;21.42;;;12.85;;
50367;SDS011;36281;34.132;-118.018;2023-07-29T12:11:22;23.75;;;12.82;;
50367;SDS011;36281;34.132;-118.018;2023-07-29T12:13:53;19.85;;;12.23;;
50367;SDS011;36281;34.132;-118.018;2023-07-29T12:16:22;22.45;;;13.15;;
50367;SDS011;36281;34.132;-118.018;2023-07-29T12:18:52;21.23;;;12.25;;
50367;SDS011;36281;34.132;-118.018;2023-07-29T12:21:21;27.30;;;14.35;;
50367;SDS011;36281;34.132;-118.018;2023-07-29T12:23:50;24.52;;;13.10;;
50367;SDS011;36281;34.132;-118.018;2023-07-29T12:26:20;29.27;;;14.02;;
50367;SDS011;36281;34.132;-118.018;2023-07-29T12:28:49;23.55;;;13.05;;
50367;SDS011;36281;34.132;-118.018;2023-07-29T12:31:18;21.17;;;13.25;;
50367;SDS011;36281;34.132;-118.018;2023-07-29T12:33:49;24.92;;;13.35;;
50367;SDS011;36281;34.132;-118.018;2023-07-29T12:36:27;17.75;;;12.00;;
50367;SDS011;36281;34.132;-118.018;2023-07-29T12:39:17;19.27;;;12.30;;
50367;SDS011;36281;34.132;-118.018;2023-07-29T12:41:50;21.20;;;13.15;;
50367;SDS011;36281;34.132;-118.018;2023-07-29T12:44:19;24.25;;;12.90;;
50367;SDS011;36281;34.132;-118.018;2023-07-29T12:46:50;23.75;;;13.15;;
50367;SDS011;36281;34.132;-118.018;2023-07-29T12:49:21;21.88;;;13.00;;
50367;SDS011;36281;34.132;-118.018;2023-07-29T12:51:50;20.25;;;13.02;;
50367;SDS011;36281;34.132;-118.018;2023-07-29T12:54:19;23.67;;;12.90;;
50367;SDS011;36281;34.132;-118.018;2023-07-29T12:56:48;24.67;;;12.25;;
50367;SDS011;36281;34.132;-118.018;2023-07-29T12:59:17;23.15;;;13.75;;
50367;SDS011;36281;34.132;-118.018;2023-07-29T13:01:46;22.15;;;12.98;;
50367;SDS011;36281;34.132;-118.018;2023-07-29T13:04:15;22.88;;;12.88;;
50367;SDS011;36281;34.132;-118.018;2023-07-29T13:06:46;21.10;;;12.60;;
50367;SDS011;36281;34.132;-118.018;2023-07-29T13:09:15;22.95;;;14.13;;
50367;SDS011;36281;34.132;-118.018;2023-07-29T13:11:44;25.73;;;13.43;;
50367;SDS011;36281;34.132;-118.018;2023-07-29T13:14:13;22.73;;;13.95;;
50367;SDS011;36281;34.132;-118.018;2023-07-29T13:16:42;21.23;;;13.20;;
50367;SDS011;36281;34.132;-118.018;2023-07-29T13:19:11;23.08;;;12.02;;
50367;SDS011;36281;34.132;-118.018;2023-07-29T13:21:40;19.42;;;12.82;;
50367;SDS011;36281;34.132;-118.018;2023-07-29T13:24:11;23.63;;;12.88;;
50367;SDS011;36281;34.132;-118.018;2023-07-29T13:26:40;24.73;;;12.98;;
50367;SDS011;36281;34.132;-118.018;2023-07-29T13:29:10;23.38;;;12.95;;
50367;SDS011;36281;34.132;-118.018;2023-07-29T13:31:39;21.90;;;13.38;;
50367;SDS011;36281;34.132;-118.018;2023-07-29T13:34:08;20.75;;;13.00;;
50367;SDS011;36281;34.132;-118.018;2023-07-29T13:36:37;20.83;;;13.77;;
50367;SDS011;36281;34.132;-118.018;2023-07-29T13:39:06;21.80;;;13.57;;
50367;SDS011;36281;34.132;-118.018;2023-07-29T13:41:36;25.45;;;13.52;;
50367;SDS011;36281;34.132;-118.018;2023-07-29T13:44:05;26.63;;;13.57;;
50367;SDS011;36281;34.132;-118.018;2023-07-29T13:46:34;24.05;;;14.57;;
50367;SDS011;36281;34.132;-118.018;2023-07-29T13:49:03;24.58;;;14.45;;
50367;SDS011;36281;34.132;-118.018;2023-07-29T13:51:32;29.65;;;15.88;;
50367;SDS011;36281;34.132;-118.018;2023-07-29T13:54:02;30.17;;;18.60;;
50367;SDS011;36281;34.132;-118.018;2023-07-29T13:56:31;33.88;;;20.55;;
50367;SDS011;36281;34.132;-118.018;2023-07-29T13:59:02;32.60;;;20.02;;
50367;SDS011;36281;34.132;-118.018;2023-07-29T14:01:31;35.08;;;21.63;;
50367;SDS011;36281;34.132;-118.018;2023-07-29T14:04:00;39.92;;;23.45;;
50367;SDS011;36281;34.132;-118.018;2023-07-29T14:06:29;33.88;;;21.80;;
50367;SDS011;36281;34.132;-118.018;2023-07-29T14:09:11;35.30;;;22.15;;
50367;SDS011;36281;34.132;-118.018;2023-07-29T14:11:40;37.45;;;22.15;;
50367;SDS011;36281;34.132;-118.018;2023-07-29T14:14:11;33.70;;;20.55;;
50367;SDS011;36281;34.132;-118.018;2023-07-29T14:16:40;37.17;;;20.83;;
50367;SDS011;36281;34.132;-118.018;2023-07-29T14:19:09;35.63;;;21.27;;
50367;SDS011;36281;34.132;-118.018;2023-07-29T14:21:38;35.22;;;20.75;;
50367;SDS011;36281;34.132;-118.018;2023-07-29T14:24:07;30.00;;;20.38;;
50367;SDS011;36281;34.132;-118.018;2023-07-29T14:26:36;34.15;;;20.92;;
50367;SDS011;36281;34.132;-118.018;2023-07-29T14:29:05;34.42;;;21.27;;
50367;SDS011;36281;34.132;-118.018;2023-07-29T14:31:36;31.52;;;20.83;;
50367;SDS011;36281;34.132;-118.018;2023-07-29T14:34:05;30.33;;;21.05;;
50367;SDS011;36281;34.132;-118.018;2023-07-29T14:36:34;37.17;;;22.60;;
50367;SDS011;36281;34.132;-118.018;2023-07-29T14:39:04;36.92;;;22.25;;